Terminal Aerodrome Forecast
Issued by NWS Wilmington, NC

Home | Current Version | Previous Version | Text Only | Print | Product List | Glossary On
Versions: 1 2 3 4 5 6 7 8 9 10 11
000
FTUS42 KILM 282300
TAFILM
TAF
KILM 282322Z 2900/2924 21005KT P6SM BKN030 OVC050
     FM290500 25003KT 4SM BR SCT004 OVC020
      TEMPO 2905/2908 BKN004
     FM290800 VRB02KT 2SM BR BKN004
     FM291300 35004KT 3SM -DZ BR OVC004
     FM291800 03007KT 4SM RA BR OVC006=

USA.gov is the U.S. government's official web portal to all federal, state and local government web resources and services.